createdAt,value
2019-03-23T00:01:55.829Z,115.30
2019-03-23T00:04:22.365Z,122.70
2019-03-23T00:06:48.699Z,128.63
2019-03-23T00:09:15.447Z,125.43
2019-03-23T00:11:41.913Z,128.47
2019-03-23T00:14:08.199Z,129.83
2019-03-23T00:16:34.646Z,131.57
2019-03-23T00:19:01.010Z,122.53
2019-03-23T00:21:27.399Z,130.37
2019-03-23T00:23:53.935Z,127.63
2019-03-23T00:26:20.263Z,120.83
2019-03-23T00:28:46.587Z,121.37
2019-03-23T00:31:13.129Z,118.97
2019-03-23T00:33:39.464Z,119.93
2019-03-23T00:36:05.690Z,123.50
2019-03-23T00:38:32.013Z,118.27
2019-03-23T00:41:00.198Z,126.33
2019-03-23T00:43:26.614Z,122.57
2019-03-23T00:45:53.167Z,113.73
2019-03-23T00:48:19.412Z,118.93
2019-03-23T00:50:46.121Z,111.97
2019-03-23T00:53:12.452Z,105.47
2019-03-23T00:55:38.781Z,107.27
2019-03-23T00:58:05.441Z,102.20
2019-03-23T01:00:31.856Z,109.17
2019-03-23T01:02:58.284Z,110.60
2019-03-23T01:05:25.043Z,99.80
2019-03-23T01:07:51.458Z,103.93
2019-03-23T01:10:17.786Z,100.70
2019-03-23T01:12:44.118Z,113.67
2019-03-23T01:15:13.985Z,105.33
2019-03-23T01:17:40.365Z,98.83
2019-03-23T01:20:09.209Z,104.87
2019-03-23T01:22:35.582Z,96.17
2019-03-23T01:25:03.144Z,103.63
2019-03-23T01:27:29.385Z,96.03
2019-03-23T01:29:55.667Z,93.03
2019-03-23T01:32:22.133Z,98.70
2019-03-23T01:34:48.699Z,90.63
2019-03-23T01:37:15.099Z,87.73
2019-03-23T01:39:41.533Z,91.53
2019-03-23T01:42:09.695Z,85.57
2019-03-23T01:44:36.279Z,94.37
2019-03-23T01:47:03.185Z,87.97
2019-03-23T01:49:29.517Z,79.83
2019-03-23T01:51:55.951Z,86.50
2019-03-23T01:54:23.818Z,84.63
2019-03-23T01:56:50.146Z,85.97
2019-03-23T01:59:16.476Z,84.87
2019-03-23T02:01:43.041Z,84.77
2019-03-23T02:04:09.443Z,86.67
2019-03-23T02:06:35.774Z,89.23
2019-03-23T02:09:05.074Z,82.63
2019-03-23T02:11:31.405Z,71.87
2019-03-23T02:13:57.734Z,85.17
2019-03-23T02:16:24.064Z,71.17
2019-03-23T02:18:50.394Z,67.97
2019-03-23T02:21:16.725Z,69.57
2019-03-23T02:23:43.057Z,67.10
2019-03-23T02:26:09.486Z,61.53
2019-03-23T02:28:35.764Z,68.77
2019-03-23T02:31:02.088Z,59.97
2019-03-23T02:33:28.479Z,69.57
2019-03-23T02:35:54.911Z,67.77
2019-03-23T02:38:21.243Z,77.37
2019-03-23T02:40:47.682Z,82.47
2019-03-23T02:43:14.009Z,74.30
2019-03-23T02:45:40.337Z,72.53
2019-03-23T02:48:06.886Z,69.53
2019-03-23T02:50:33.244Z,81.63
2019-03-23T02:52:59.537Z,79.57
2019-03-23T02:55:25.867Z,79.03
2019-03-23T02:57:52.196Z,78.97
2019-03-23T03:00:18.542Z,78.03
2019-03-23T03:02:44.884Z,78.43
2019-03-23T03:05:11.361Z,83.37
2019-03-23T03:07:42.369Z,81.07
2019-03-23T03:10:10.264Z,79.27
2019-03-23T03:12:36.843Z,75.40
2019-03-23T03:15:05.874Z,79.37
2019-03-23T03:17:32.266Z,73.83
2019-03-23T03:19:58.594Z,69.97
2019-03-23T03:22:24.926Z,76.70
2019-03-23T03:24:51.356Z,75.37
2019-03-23T03:27:17.685Z,71.17
2019-03-23T03:29:43.974Z,79.20
2019-03-23T03:32:10.346Z,74.03
2019-03-23T03:34:36.677Z,75.03
2019-03-23T03:37:03.110Z,77.53
2019-03-23T03:39:29.541Z,78.10
2019-03-23T03:41:55.819Z,77.93
2019-03-23T03:44:22.204Z,79.70
2019-03-23T03:46:48.533Z,75.23
2019-03-23T03:49:14.965Z,79.93
2019-03-23T03:51:41.298Z,79.83
2019-03-23T03:54:07.564Z,74.17
2019-03-23T03:56:33.958Z,76.37
2019-03-23T03:59:00.393Z,76.40
2019-03-23T04:01:27.038Z,78.90
2019-03-23T04:03:53.461Z,82.73
2019-03-23T04:06:19.801Z,84.37
2019-03-23T04:08:46.083Z,78.17
2019-03-23T04:11:12.403Z,79.00
2019-03-23T04:13:38.683Z,79.30
2019-03-23T04:16:05.212Z,83.13
2019-03-23T04:18:33.222Z,75.50
2019-03-23T04:20:59.614Z,78.10
2019-03-23T04:23:25.815Z,80.47
2019-03-23T04:25:52.174Z,78.00
2019-03-23T04:28:18.418Z,77.70
2019-03-23T04:30:44.718Z,82.00
2019-03-23T04:33:11.009Z,78.90
2019-03-23T04:35:37.395Z,89.20
2019-03-23T04:38:03.620Z,77.13
2019-03-23T04:40:29.949Z,73.53
2019-03-23T04:42:56.278Z,76.67
2019-03-23T04:45:22.609Z,72.43
2019-03-23T04:47:48.873Z,72.57
2019-03-23T04:50:15.173Z,76.57
2019-03-23T04:52:41.497Z,72.53
2019-03-23T04:55:12.526Z,69.23
2019-03-23T04:57:39.028Z,71.37
2019-03-23T05:00:07.926Z,70.03
2019-03-23T05:02:34.305Z,71.10
2019-03-23T05:05:00.633Z,68.53
2019-03-23T05:07:26.868Z,65.37
2019-03-23T05:09:53.285Z,68.43
2019-03-23T05:12:19.505Z,66.77
2019-03-23T05:14:45.846Z,65.60
2019-03-23T05:17:12.515Z,60.00
2019-03-23T05:19:38.913Z,64.73
2019-03-23T05:22:05.244Z,62.30
2019-03-23T05:24:31.504Z,66.00
2019-03-23T05:26:57.823Z,69.07
2019-03-23T05:29:24.133Z,60.53
2019-03-23T05:31:50.463Z,59.27
2019-03-23T05:34:16.736Z,64.23
2019-03-23T05:36:43.124Z,63.67
2019-03-23T05:39:09.459Z,66.97
2019-03-23T05:41:35.790Z,62.20
2019-03-23T05:44:02.473Z,66.23
2019-03-23T05:46:28.855Z,60.13
2019-03-23T05:48:55.188Z,56.23
2019-03-23T05:51:21.842Z,59.27
2019-03-23T05:53:48.256Z,53.97
2019-03-23T05:56:14.641Z,56.40
2019-03-23T05:58:41.038Z,56.57
2019-03-23T06:01:07.557Z,58.50
2019-03-23T06:03:33.887Z,60.67
2019-03-23T06:06:00.219Z,55.87
2019-03-23T06:08:26.764Z,62.30
2019-03-23T06:10:53.088Z,60.80
2019-03-23T06:13:19.513Z,58.63
2019-03-23T06:15:45.846Z,64.83
2019-03-23T06:18:12.176Z,64.03
2019-03-23T06:20:38.508Z,62.17
2019-03-23T06:23:05.058Z,58.07
2019-03-23T06:25:31.481Z,59.83
2019-03-23T06:27:57.803Z,59.90
2019-03-23T06:30:24.064Z,59.90
2019-03-23T06:32:50.465Z,61.90
2019-03-23T06:35:17.119Z,58.37
2019-03-23T06:37:43.430Z,58.80
2019-03-23T06:40:09.910Z,61.70
2019-03-23T06:42:36.505Z,57.30
2019-03-23T06:45:08.668Z,62.90
2019-03-23T06:47:35.314Z,58.43
2019-03-23T06:50:03.177Z,60.77
2019-03-23T06:52:29.509Z,56.30
2019-03-23T06:54:56.058Z,60.07
2019-03-23T06:57:22.470Z,56.80
2019-03-23T06:59:48.808Z,62.53
2019-03-23T07:02:15.108Z,55.10
2019-03-23T07:04:41.463Z,60.47
2019-03-23T07:07:07.811Z,65.57
2019-03-23T07:09:34.124Z,62.60
2019-03-23T07:12:00.457Z,59.63
2019-03-23T07:14:26.746Z,56.93
2019-03-23T07:16:53.116Z,53.97
2019-03-23T07:19:19.450Z,56.10
2019-03-23T07:21:45.875Z,59.20
2019-03-23T07:24:12.207Z,55.73
2019-03-23T07:26:38.495Z,56.80
2019-03-23T07:29:04.803Z,60.67
2019-03-23T07:31:31.199Z,51.30
2019-03-23T07:33:59.305Z,58.17
2019-03-23T07:36:25.599Z,56.43
2019-03-23T07:38:51.932Z,55.33
2019-03-23T07:41:18.268Z,52.63
2019-03-23T07:43:44.590Z,61.10
2019-03-23T07:46:10.858Z,56.63
2019-03-23T07:48:37.251Z,59.53
2019-03-23T07:51:03.683Z,54.03
2019-03-23T07:53:30.014Z,50.77
2019-03-23T07:55:56.344Z,57.10
2019-03-23T07:58:22.675Z,54.03
2019-03-23T08:00:49.259Z,54.00
2019-03-23T08:03:15.867Z,54.17
2019-03-23T08:05:42.500Z,55.23
2019-03-23T08:08:08.816Z,53.03
2019-03-23T08:10:35.208Z,51.57
2019-03-23T08:13:01.588Z,56.17
2019-03-23T08:15:29.783Z,56.40
2019-03-23T08:17:56.082Z,54.17
2019-03-23T08:20:23.226Z,51.43
2019-03-23T08:22:49.518Z,52.67
2019-03-23T08:25:15.790Z,50.17
2019-03-23T08:27:42.009Z,51.80
2019-03-23T08:30:08.758Z,50.43
2019-03-23T08:32:35.088Z,49.40
2019-03-23T08:35:01.434Z,51.67
2019-03-23T08:37:27.728Z,54.63
2019-03-23T08:39:54.081Z,58.43
2019-03-23T08:42:20.421Z,54.50
2019-03-23T08:44:46.740Z,47.50
2019-03-23T08:47:13.051Z,51.90
2019-03-23T08:49:39.362Z,50.90
2019-03-23T08:52:05.806Z,55.77
2019-03-23T08:54:32.441Z,53.33
2019-03-23T08:56:58.759Z,51.87
2019-03-23T08:59:25.407Z,49.33
2019-03-23T09:01:51.695Z,52.07
2019-03-23T09:04:18.057Z,51.37
2019-03-23T09:06:45.104Z,54.70
2019-03-23T09:09:11.305Z,57.80
2019-03-23T09:11:37.976Z,51.57
2019-03-23T09:14:04.403Z,54.10
2019-03-23T09:16:30.731Z,50.47
2019-03-23T09:18:57.062Z,55.03
2019-03-23T09:21:23.696Z,53.40
2019-03-23T09:23:49.930Z,50.17
2019-03-23T09:26:16.195Z,52.93
2019-03-23T09:28:42.503Z,54.50
2019-03-23T09:31:08.921Z,53.63
2019-03-23T09:33:35.166Z,54.37
2019-03-23T09:36:01.808Z,46.40
2019-03-23T09:38:28.114Z,52.83
2019-03-23T09:40:54.445Z,51.33
2019-03-23T09:43:20.764Z,52.20
2019-03-23T09:45:47.067Z,55.83
2019-03-23T09:48:13.754Z,51.37
2019-03-23T09:50:40.392Z,51.97
2019-03-23T09:53:06.812Z,54.33
2019-03-23T09:55:33.144Z,49.30
2019-03-23T09:57:59.417Z,50.47
2019-03-23T10:00:25.804Z,48.87
2019-03-23T10:02:52.136Z,51.60
2019-03-23T10:05:18.464Z,51.67
2019-03-23T10:07:44.795Z,50.33
2019-03-23T10:10:20.969Z,48.60
2019-03-23T10:12:39.301Z,50.70
2019-03-23T10:15:08.702Z,50.03
2019-03-23T10:17:35.136Z,51.77
2019-03-23T10:20:03.341Z,46.57
2019-03-23T10:22:29.657Z,51.23
2019-03-23T10:24:56.072Z,53.70
2019-03-23T10:27:22.403Z,51.40
2019-03-23T10:29:48.732Z,47.53
2019-03-23T10:32:15.062Z,47.50
2019-03-23T10:34:41.612Z,48.90
2019-03-23T10:37:08.252Z,45.73
2019-03-23T10:39:34.565Z,50.87
2019-03-23T10:42:00.895Z,52.57
2019-03-23T10:44:27.438Z,47.90
2019-03-23T10:46:53.737Z,44.73
2019-03-23T10:49:20.092Z,47.43
2019-03-23T10:51:46.532Z,46.53
2019-03-23T10:54:12.817Z,47.63
2019-03-23T10:56:39.184Z,46.03
2019-03-23T10:59:05.737Z,48.20
2019-03-23T11:01:32.370Z,44.43
2019-03-23T11:03:58.686Z,45.83
2019-03-23T11:06:25.019Z,43.57
2019-03-23T11:08:51.674Z,48.47
2019-03-23T11:11:18.089Z,50.47
2019-03-23T11:13:44.377Z,47.00
2019-03-23T11:16:10.805Z,45.37
2019-03-23T11:18:37.870Z,49.43
2019-03-23T11:21:04.219Z,44.83
2019-03-23T11:23:31.466Z,45.43
2019-03-23T11:25:57.695Z,43.70
2019-03-23T11:28:24.042Z,48.10
2019-03-23T11:30:50.375Z,45.90
2019-03-23T11:33:16.701Z,42.10
2019-03-23T11:35:43.138Z,48.90
2019-03-23T11:38:09.569Z,44.13
2019-03-23T11:40:35.999Z,43.40
2019-03-23T11:43:02.638Z,44.77
2019-03-23T11:45:28.969Z,47.00
2019-03-23T11:47:55.212Z,43.67
2019-03-23T11:50:41.444Z,44.30
2019-03-23T11:53:07.733Z,43.30
2019-03-23T11:55:34.159Z,45.77
2019-03-23T11:58:00.483Z,45.50
2019-03-23T12:00:26.839Z,46.50
2019-03-23T12:02:53.254Z,42.23
2019-03-23T12:05:19.528Z,43.17
2019-03-23T12:07:45.910Z,42.97
2019-03-23T12:10:12.638Z,45.20
2019-03-23T12:12:39.088Z,40.93
2019-03-23T12:15:07.276Z,41.37
2019-03-23T12:17:33.795Z,43.90
2019-03-23T12:20:00.180Z,42.80
2019-03-23T12:22:26.673Z,43.03
2019-03-23T12:24:52.971Z,40.90
2019-03-23T12:27:19.317Z,40.47
2019-03-23T12:29:45.559Z,39.37
2019-03-23T12:32:11.894Z,38.87
2019-03-23T12:34:38.409Z,38.40
2019-03-23T12:37:04.686Z,42.63
2019-03-23T12:39:31.007Z,41.03
2019-03-23T12:41:57.605Z,36.40
2019-03-23T12:44:23.932Z,38.73
2019-03-23T12:46:50.194Z,34.90
2019-03-23T12:49:16.499Z,41.13
2019-03-23T12:51:42.822Z,38.77
2019-03-23T12:54:09.092Z,38.03
2019-03-23T12:56:35.414Z,36.83
2019-03-23T12:59:01.814Z,32.47
2019-03-23T13:01:28.246Z,34.07
2019-03-23T13:03:54.577Z,36.43
2019-03-23T13:06:20.908Z,37.80
2019-03-23T13:08:47.236Z,38.43
2019-03-23T13:11:23.049Z,38.63
2019-03-23T13:13:41.638Z,35.47
2019-03-23T13:16:07.970Z,37.10
2019-03-23T13:18:34.326Z,39.23
2019-03-23T13:21:02.905Z,38.83
2019-03-23T13:23:30.673Z,37.03
2019-03-23T13:25:56.955Z,34.20
2019-03-23T13:28:23.307Z,42.17
2019-03-23T13:30:49.637Z,35.30
2019-03-23T13:33:15.967Z,34.33
2019-03-23T13:35:42.247Z,40.03
2019-03-23T13:38:08.850Z,41.30
2019-03-23T13:40:35.265Z,36.43
2019-03-23T13:43:03.556Z,34.87
2019-03-23T13:45:31.453Z,37.67
2019-03-23T13:47:57.958Z,40.03
2019-03-23T13:50:25.972Z,39.57
2019-03-23T13:52:52.241Z,35.30
2019-03-23T13:55:24.614Z,37.47
2019-03-23T13:57:50.945Z,35.23
2019-03-23T14:00:17.322Z,39.83
2019-03-23T14:02:43.719Z,41.77
2019-03-23T14:05:16.072Z,41.33
2019-03-23T14:07:38.110Z,36.27
2019-03-23T14:10:04.748Z,38.07
2019-03-23T14:12:31.050Z,39.93
2019-03-23T14:14:57.348Z,34.63
2019-03-23T14:17:23.743Z,40.47
2019-03-23T14:19:50.071Z,37.47
2019-03-23T14:22:16.503Z,33.60
2019-03-23T14:24:42.933Z,35.77
2019-03-23T14:27:09.578Z,35.13
2019-03-23T14:29:35.803Z,36.20
2019-03-23T14:32:02.231Z,33.83
2019-03-23T14:34:28.525Z,36.93
2019-03-23T14:36:54.834Z,31.97
2019-03-23T14:39:21.141Z,33.17
2019-03-23T14:41:47.446Z,35.53
2019-03-23T14:44:13.778Z,36.27
2019-03-23T14:46:40.060Z,35.00
2019-03-23T14:49:06.387Z,33.87
2019-03-23T14:51:32.874Z,36.53
2019-03-23T14:53:59.202Z,35.23
2019-03-23T14:56:25.636Z,35.23
2019-03-23T14:58:51.934Z,35.43
2019-03-23T15:01:18.402Z,35.20
2019-03-23T15:03:44.627Z,38.00
2019-03-23T15:06:10.924Z,33.80
2019-03-23T15:08:37.295Z,37.00
2019-03-23T15:11:03.550Z,29.50
2019-03-23T15:13:29.947Z,37.07
2019-03-23T15:15:56.278Z,33.10
2019-03-23T15:18:22.608Z,38.77
2019-03-23T15:20:48.937Z,30.43
2019-03-23T15:23:15.370Z,29.87
2019-03-23T15:25:41.656Z,30.87
2019-03-23T15:28:07.956Z,28.40
2019-03-23T15:30:34.364Z,29.60
2019-03-23T15:33:00.794Z,28.33
2019-03-23T15:35:27.119Z,22.63
2019-03-23T15:37:53.424Z,24.47
2019-03-23T15:40:19.760Z,24.90
2019-03-23T15:42:46.440Z,26.07
2019-03-23T15:45:12.742Z,22.23
2019-03-23T15:47:39.084Z,19.53
2019-03-23T15:50:06.236Z,16.90
2019-03-23T15:52:33.412Z,15.77
2019-03-23T15:54:59.715Z,13.27
2019-03-23T15:57:26.262Z,14.43
2019-03-23T15:59:54.262Z,12.97
2019-03-23T16:02:20.855Z,15.27
2019-03-23T16:04:47.183Z,15.30
2019-03-23T16:07:13.419Z,12.80
2019-03-23T16:09:39.731Z,14.10
2019-03-23T16:12:06.075Z,11.83
2019-03-23T16:14:32.403Z,10.77
2019-03-23T16:16:58.622Z,10.60
2019-03-23T16:19:24.908Z,13.53
2019-03-23T16:21:51.198Z,9.30
2019-03-23T16:24:17.510Z,9.70
2019-03-23T16:26:43.907Z,11.20
2019-03-23T16:29:10.283Z,7.93
2019-03-23T16:31:36.615Z,9.73
2019-03-23T16:34:03.373Z,9.63
2019-03-23T16:36:29.784Z,9.57
2019-03-23T16:38:56.108Z,9.53
2019-03-23T16:41:22.823Z,6.87
2019-03-23T16:43:49.189Z,8.40
2019-03-23T16:46:15.428Z,7.07
2019-03-23T16:48:41.953Z,7.20
2019-03-23T16:51:08.281Z,8.13
2019-03-23T16:53:36.295Z,4.20
2019-03-23T16:56:02.591Z,6.97
2019-03-23T16:58:28.895Z,7.40
2019-03-23T17:00:55.238Z,6.33
2019-03-23T17:03:21.571Z,5.50
2019-03-23T17:06:07.665Z,4.57
2019-03-23T17:08:34.383Z,6.13
2019-03-23T17:11:00.732Z,8.97
2019-03-23T17:13:27.070Z,9.40
2019-03-23T17:15:53.556Z,7.13
2019-03-23T17:18:19.907Z,5.80
2019-03-23T17:20:46.463Z,7.07
2019-03-23T17:23:12.723Z,5.03
2019-03-23T17:25:39.126Z,5.77
2019-03-23T17:28:05.353Z,7.37
2019-03-23T17:30:31.683Z,12.43
2019-03-23T17:32:58.023Z,6.90
2019-03-23T17:35:24.343Z,9.27
2019-03-23T17:37:50.674Z,6.63
2019-03-23T17:40:17.005Z,7.67
2019-03-23T17:42:43.335Z,6.57
2019-03-23T17:45:09.645Z,9.50
2019-03-23T17:47:36.114Z,9.80
2019-03-23T17:50:03.760Z,8.17
2019-03-23T17:52:30.417Z,12.53
2019-03-23T17:54:56.828Z,11.00
2019-03-23T17:57:23.233Z,11.23
2019-03-23T17:59:49.708Z,14.70
2019-03-23T18:02:17.154Z,8.47
2019-03-23T18:04:43.585Z,10.80
2019-03-23T18:07:09.913Z,10.93
2019-03-23T18:09:36.257Z,9.67
2019-03-23T18:12:02.722Z,9.83
2019-03-23T18:14:29.215Z,11.53
2019-03-23T18:16:55.545Z,10.43
2019-03-23T18:19:21.978Z,14.33
2019-03-23T18:21:48.422Z,11.60
2019-03-23T18:24:14.740Z,13.40
2019-03-23T18:26:41.040Z,11.57
2019-03-23T18:29:07.934Z,10.93
2019-03-23T18:31:34.344Z,13.23
2019-03-23T18:34:00.676Z,11.70
2019-03-23T18:36:28.250Z,10.80
2019-03-23T18:38:54.483Z,11.27
2019-03-23T18:41:20.784Z,11.63
2019-03-23T18:43:48.027Z,10.00
2019-03-23T18:46:16.050Z,12.60
2019-03-23T18:48:42.361Z,10.00
2019-03-23T18:51:08.791Z,11.50
2019-03-23T18:53:35.112Z,10.57
2019-03-23T18:56:01.438Z,10.20
2019-03-23T18:58:27.869Z,10.80
2019-03-23T19:00:54.459Z,8.57
2019-03-23T19:03:21.049Z,11.83
2019-03-23T19:05:47.373Z,10.30
2019-03-23T19:08:13.704Z,12.47
2019-03-23T19:10:40.061Z,10.50
2019-03-23T19:13:06.462Z,10.87
2019-03-23T19:15:33.495Z,8.67
2019-03-23T19:17:59.846Z,11.10
2019-03-23T19:20:26.173Z,9.07
2019-03-23T19:22:52.475Z,14.13
2019-03-23T19:25:18.969Z,12.27
2019-03-23T19:27:45.297Z,10.20
2019-03-23T19:30:12.108Z,11.03
2019-03-23T19:32:38.438Z,12.80
2019-03-23T19:35:05.285Z,12.23
2019-03-23T19:37:31.616Z,12.77
2019-03-23T19:39:57.867Z,9.63
2019-03-23T19:42:24.272Z,10.00
2019-03-23T19:44:50.568Z,8.70
2019-03-23T19:47:17.243Z,9.80
2019-03-23T19:49:43.572Z,11.33
2019-03-23T19:52:09.887Z,12.13
2019-03-23T19:54:36.230Z,12.33
2019-03-23T19:57:02.667Z,13.13
2019-03-23T19:59:29.318Z,12.83
2019-03-23T20:01:55.631Z,11.50
2019-03-23T20:04:22.009Z,11.93
2019-03-23T20:06:48.622Z,14.77
2019-03-23T20:09:15.035Z,8.77
2019-03-23T20:11:41.445Z,7.67
2019-03-23T20:14:08.120Z,11.43
2019-03-23T20:16:34.639Z,11.10
2019-03-23T20:19:00.967Z,12.90
2019-03-23T20:21:27.299Z,9.13
2019-03-23T20:23:53.587Z,9.50
2019-03-23T20:26:19.996Z,10.27
2019-03-23T20:28:46.392Z,10.53
2019-03-23T20:31:12.610Z,11.33
2019-03-23T20:33:38.932Z,13.03
2019-03-23T20:36:05.282Z,12.97
2019-03-23T20:38:31.720Z,9.63
2019-03-23T20:40:58.151Z,7.73
2019-03-23T20:43:24.477Z,11.13
2019-03-23T20:45:50.949Z,12.47
2019-03-23T20:48:17.856Z,12.13
2019-03-23T20:50:44.367Z,11.37
2019-03-23T20:53:13.979Z,10.93
2019-03-23T20:55:40.680Z,14.03
2019-03-23T20:58:07.067Z,12.20
2019-03-23T21:00:53.147Z,10.23
2019-03-23T21:03:19.448Z,8.60
2019-03-23T21:05:45.782Z,10.97
2019-03-23T21:08:12.101Z,11.73
2019-03-23T21:10:38.446Z,10.50
2019-03-23T21:13:04.783Z,9.37
2019-03-23T21:15:31.311Z,12.70
2019-03-23T21:17:57.593Z,13.43
2019-03-23T21:20:23.860Z,7.87
2019-03-23T21:22:50.283Z,12.50
2019-03-23T21:25:16.577Z,10.10
2019-03-23T21:27:43.065Z,12.50
2019-03-23T21:30:12.203Z,14.07
2019-03-23T21:32:38.517Z,9.57
2019-03-23T21:35:05.078Z,10.43
2019-03-23T21:37:31.334Z,9.90
2019-03-23T21:39:57.783Z,10.80
2019-03-23T21:42:24.071Z,9.93
2019-03-23T21:44:50.451Z,9.40
2019-03-23T21:47:16.790Z,10.23
2019-03-23T21:49:43.210Z,15.20
2019-03-23T21:52:09.508Z,8.63
2019-03-23T21:54:35.873Z,8.90
2019-03-23T21:57:02.490Z,8.87
2019-03-23T21:59:28.768Z,8.00
2019-03-23T22:01:56.298Z,14.27
2019-03-23T22:04:22.587Z,12.03
2019-03-23T22:06:49.591Z,10.43
2019-03-23T22:09:16.304Z,8.17
2019-03-23T22:11:42.674Z,14.20
2019-03-23T22:14:08.977Z,11.90
2019-03-23T22:16:35.300Z,5.57
2019-03-23T22:19:01.634Z,11.70
2019-03-23T22:21:27.962Z,10.13
2019-03-23T22:23:54.966Z,6.87
2019-03-23T22:26:22.571Z,8.93
2019-03-23T22:28:48.858Z,11.00
2019-03-23T22:31:16.142Z,6.90
2019-03-23T22:33:42.583Z,13.07
2019-03-23T22:36:08.919Z,10.53
2019-03-23T22:38:35.360Z,8.50
2019-03-23T22:41:01.782Z,9.00
2019-03-23T22:43:28.114Z,11.97
2019-03-23T22:45:54.441Z,11.73
2019-03-23T22:48:21.089Z,9.13
2019-03-23T22:50:47.408Z,9.03
2019-03-23T22:53:13.800Z,7.57
2019-03-23T22:55:40.173Z,10.17
2019-03-23T22:58:06.708Z,9.53
2019-03-23T23:00:46.278Z,10.33
2019-03-23T23:03:13.323Z,13.93
2019-03-23T23:05:40.138Z,11.97
2019-03-23T23:08:06.576Z,11.63
2019-03-23T23:10:32.820Z,9.80
2019-03-23T23:12:59.159Z,9.57
2019-03-23T23:15:25.560Z,12.67
2019-03-23T23:17:53.355Z,10.53
2019-03-23T23:20:19.859Z,11.43
2019-03-23T23:22:46.293Z,9.23
2019-03-23T23:25:12.617Z,10.97
2019-03-23T23:27:40.625Z,12.37
2019-03-23T23:30:08.624Z,10.27
2019-03-23T23:32:35.504Z,15.43
2019-03-23T23:35:01.862Z,9.90
2019-03-23T23:37:28.133Z,19.37
2019-03-23T23:39:54.438Z,11.23
2019-03-23T23:42:20.827Z,10.10
2019-03-23T23:44:47.168Z,8.73
2019-03-23T23:47:13.445Z,10.87
2019-03-23T23:49:39.719Z,13.03
2019-03-23T23:52:06.047Z,10.27
2019-03-23T23:54:32.696Z,9.27
2019-03-23T23:56:59.008Z,9.13
2019-03-23T23:59:27.688Z,7.50
